Main page
METAR-TAF:

METAR-TAF

Airports :

RNAS Yeovilton (HMS Heron)

Yeovilton, England

latitude: 51-00N, longitude: 002-38W, elevation: 23 m

Current weather observation

The report was made 31 minutes ago, at 23:50 UTC
Wind 10 kt from the South/Southwest
Temperature 10°C
Humidity 100%
Pressure 1006 hPa
Visibility 10 km or more

METAR: EGDY 272350Z AUTO 20010KT 9999 BKN009/// BKN050/// 10/10 Q1006

Time: 00:21 (00:21 UTC)


TAF: missing

Weather observations and forecasts of more than 4000 airports (METAR and TAF reports).

The available stations are represented by yellow and red dots on the map.

Hover mouse over dot to see the name of the station.

Then click to see weather observations and forecasts.

To change the map : click on the green buttons with a black cross to zoom in, on the green button with a dash to zoom out, or on the green arrows for adjacent maps.


METAR-TAF: